AirNav   Everest Fuels
 
 390 users online  

FA98 North Collier Hospital Heliport
Naples, Florida, USA

GOING TO NAPLES?


FAA INFORMATION EFFECTIVE 07 NOVEMBER 2019

Location

FAA Identifier: FA98
Lat/Long: 26-16-25.8300N 081-47-16.3400W
26-16.430500N 081-47.272333W
26.2738417,-81.7878722
(estimated)
Elevation: 7.4 ft. / 2 m (estimated)
From city: 8 miles S of NAPLES, FL
Time zone: UTC -5 (UTC -4 during Daylight Saving Time)
Zip code: 34110

Heliport Operations

Heliport use: Private use. Permission required prior to landing
Activation date: 12/2016
Control tower: no
ARTCC: MIAMI CENTER
FSS: MIAMI FLIGHT SERVICE STATION
Attendance: 
Wind indicator: lighted
Segmented circle: no

Heliport Communications

WX ASOS at APF (7 nm S): PHONE 239-643-9886
WX ASOS at RSW (16 nm N): PHONE 239-561-0966
WX AWOS-3PT at MKY (18 nm S): 120.075 (239-394-8187)
WX ASOS at FMY (19 nm N): 123.725 (239-936-2318)

Nearby radio navigation aids

VOR radial/distance  VOR name  Freq  Var
CYYr359/7.2CYPRESS VOR/DME108.6003W
RSWr184/15.4LEE COUNTY VORTAC111.8002W
LBVr212/39.5LA BELLE VORTAC110.4001E

Heliport Services

Runway Information

Helipad H1

Dimensions: 44 x 44 ft. / 13 x 13 m
Surface: concrete
Runway edge lights: PERI
Traffic pattern: leftleft

Heliport Ownership and Management from official FAA records

Ownership: Privately-owned
Owner: HEALTHCARE SYSTEMS INC
350 7TH ST NORTH
NAPLES, FL 34102
Phone 239-624-2855
Manager: JOHN GRIFFITH
350 7TH ST NORTH
NAPLES, FL 34102
Phone 239-624-2855

Additional Remarks

FOR CD CTC FORT MYERS APCH AT 239-768-1377, WHEN APCH CLSD CTC MIAMI ARTCC AT 305-716-1731.

Instrument Procedures

There are no published instrument procedures at FA98.

Some nearby airports with instrument procedures:

KAPF - Naples Municipal Airport (7 nm S)
KRSW - Southwest Florida International Airport (16 nm N)
KMKY - Marco Island Executive Airport (18 nm S)
KFMY - Page Field Airport (19 nm N)
KIMM - Immokalee Regional Airport (23 nm NE)
 
Loc | Ops | Rwys | IFR | FBO | Links
Com | Nav | Svcs | Stats | Notes
Aerial photo
No photo
 
Airport distance calculator
Flying to North Collier Hospital Heliport? Find the distance to fly.

From to FA98

Sunrise and sunset
Times for 12-Nov-2019
 Local
(UTC-5)
 Zulu
(UTC)
Morning civil twilight06:2011:20
Sunrise06:4511:45
Sunset17:3822:38
Evening civil twilight18:0223:02

Current date and time
Zulu (UTC)  12-Nov-2019 06:39:17
Local (UTC-5)  12-Nov-2019 01:39:17
 
METAR
KAPF 
9nm S 
120553Z AUTO 06003KT 10SM CLR 21/17 A2999 RMK AO2 SLP155 T02060167 10261 20206 58013 $
KRSW 
16nm N 
120553Z AUTO 06004KT 10SM CLR 18/17 A3000 RMK AO2 SLP157 T01830167 10244 20183 58011
KMKY 
18nm S 
120556Z AUTO 00000KT 10SM CLR A3001 RMK AO2 SLPNO 58010 FZRANO TSNO $
KFMY 
19nm N 
120553Z AUTO 07004KT 10SM CLR 19/16 A2999 RMK AO2 RAE11 SLP158 P0000 60000 T01940161 10250 20194 58012 $
TAF
KAPF 
9nm S 
120539Z 1206/1306 VRB03KT P6SM FEW010 FM121400 11005KT P6SM FEW020 FEW250 FM121700 24007KT P6SM FEW040 SCT250 FM122000 29007KT P6SM FEW035 SCT250 FM130200 35005KT P6SM FEW050 SCT250
KRSW 
16nm N 
120530Z 1206/1306 VRB03KT P6SM FEW060 SCT200 FM121900 27004KT P6SM FEW030 SCT200 FM122300 30004KT P6SM SCT030 BKN200 FM130500 34006KT P6SM SCT015 BKN030
KFMY 
19nm N 
120530Z 1206/1306 VRB03KT P6SM FEW060 SCT200 FM121900 26004KT P6SM FEW030 SCT200 FM130000 31005KT P6SM SCT030 BKN200 FM130500 35007KT P6SM SCT015 BKN030
NOTAMs
Click for the latest NOTAMs
NOTAMs are issued by the DoD/FAA and will open in a separate window not controlled by AirNav.

 

 
 

Would you like to see your business listed on this page?

 If your business provides an interesting product or service to pilots, flight crews, aircraft, or users of the North Collier Hospital Heliport, you should consider listing it here.  To start the listing process, click on the button below
 
Add a business
 

Other Pages about North Collier Hospital Heliport

Update a link
 
Copyright © AirNav, LLC. All rights reserved. Privacy Policy  Contact